createdAt,value
2019-04-21T00:00:31.893Z,42.10
2019-04-21T00:01:12.483Z,42.10
2019-04-21T00:01:50.548Z,42.00
2019-04-21T00:02:32.248Z,42.00
2019-04-21T00:03:07.342Z,41.90
2019-04-21T00:03:47.730Z,41.80
2019-04-21T00:04:24.856Z,41.90
2019-04-21T00:05:15.611Z,41.90
2019-04-21T00:05:49.117Z,41.90
2019-04-21T00:06:33.619Z,41.90
2019-04-21T00:07:03.431Z,41.90
2019-04-21T00:07:40.293Z,41.80
2019-04-21T00:08:27.156Z,41.70
2019-04-21T00:08:56.027Z,41.80
2019-04-21T00:09:33.685Z,41.70
2019-04-21T00:10:12.140Z,41.80
2019-04-21T00:10:48.223Z,41.70
2019-04-21T00:11:26.374Z,41.60
2019-04-21T00:11:57.179Z,41.40
2019-04-21T00:12:35.214Z,41.40
2019-04-21T00:13:07.800Z,41.50
2019-04-21T00:13:42.764Z,41.60
2019-04-21T00:14:20.925Z,41.60
2019-04-21T00:14:54.854Z,41.70
2019-04-21T00:15:29.798Z,41.70
2019-04-21T00:16:02.896Z,41.80
2019-04-21T00:16:44.119Z,41.80
2019-04-21T00:17:17.331Z,41.80
2019-04-21T00:17:54.777Z,41.90
2019-04-21T00:18:53.201Z,41.80
2019-04-21T00:19:39.196Z,41.80
2019-04-21T00:20:23.792Z,41.80
2019-04-21T00:20:57.899Z,41.90
2019-04-21T00:21:38.566Z,41.80
2019-04-21T00:22:19.138Z,41.80
2019-04-21T00:22:58.674Z,41.80
2019-04-21T00:23:39.314Z,41.90
2019-04-21T00:24:24.825Z,41.90
2019-04-21T00:25:01.107Z,41.90
2019-04-21T00:25:38.839Z,41.90
2019-04-21T00:26:16.382Z,42.00
2019-04-21T00:26:57.811Z,41.80
2019-04-21T00:27:34.299Z,41.90
2019-04-21T00:28:16.898Z,42.00
2019-04-21T00:28:54.020Z,42.20
2019-04-21T00:29:32.193Z,42.30
2019-04-21T00:30:04.536Z,42.50
2019-04-21T00:30:40.051Z,42.60
2019-04-21T00:31:18.155Z,42.70
2019-04-21T00:31:51.404Z,42.80
2019-04-21T00:32:26.902Z,43.00
2019-04-21T00:33:00.219Z,43.10
2019-04-21T00:33:32.429Z,43.10
2019-04-21T00:34:04.667Z,43.20
2019-04-21T00:34:42.015Z,43.40
2019-04-21T00:35:22.521Z,43.30
2019-04-21T00:36:00.706Z,43.40
2019-04-21T00:36:43.564Z,43.40
2019-04-21T00:37:17.970Z,43.40
2019-04-21T00:38:00.312Z,43.40
2019-04-21T00:38:48.947Z,43.40
2019-04-21T00:39:28.891Z,43.40
2019-04-21T00:40:09.429Z,43.40
2019-04-21T00:40:35.543Z,43.40
2019-04-21T00:41:13.464Z,43.40
2019-04-21T00:41:50.899Z,43.40
2019-04-21T00:42:25.423Z,43.50
2019-04-21T00:42:59.915Z,43.50
2019-04-21T00:43:32.911Z,43.50
2019-04-21T00:44:04.090Z,43.70
2019-04-21T00:44:44.283Z,43.70
2019-04-21T00:45:22.518Z,43.80
2019-04-21T00:45:55.516Z,43.90
2019-04-21T00:46:37.445Z,43.90
2019-04-21T00:47:24.280Z,44.00
2019-04-21T00:47:57.711Z,44.00
2019-04-21T00:48:37.764Z,44.00
2019-04-21T00:49:06.018Z,44.10
2019-04-21T00:49:55.377Z,44.30
2019-04-21T00:50:34.242Z,44.40
2019-04-21T00:51:16.919Z,44.50
2019-04-21T00:51:53.912Z,44.60
2019-04-21T00:53:43.626Z,44.80
2019-04-21T00:54:16.970Z,45.00
2019-04-21T00:55:03.627Z,44.80
2019-04-21T00:55:38.749Z,44.80
2019-04-21T00:56:18.286Z,44.80
2019-04-21T00:56:49.619Z,44.70
2019-04-21T00:57:34.238Z,44.70
2019-04-21T00:58:08.302Z,44.70
2019-04-21T00:58:39.303Z,44.60
2019-04-21T00:59:20.010Z,44.60
2019-04-21T00:59:52.588Z,44.60
2019-04-21T01:00:30.420Z,44.60
2019-04-21T01:01:12.153Z,44.70
2019-04-21T01:01:43.665Z,44.60
2019-04-21T01:02:15.499Z,44.60
2019-04-21T01:03:14.754Z,44.50
2019-04-21T01:03:37.278Z,44.50
2019-04-21T01:04:09.985Z,44.40
2019-04-21T01:04:53.867Z,44.50
2019-04-21T01:05:26.726Z,44.50
2019-04-21T01:06:06.591Z,44.50
2019-04-21T01:06:43.498Z,44.50
2019-04-21T01:07:17.651Z,44.70
2019-04-21T01:07:50.667Z,44.60
2019-04-21T01:08:31.115Z,44.60
2019-04-21T01:09:06.366Z,44.70
2019-04-21T01:09:37.324Z,44.80
2019-04-21T01:10:14.648Z,44.90
2019-04-21T01:10:51.444Z,44.90
2019-04-21T01:11:31.698Z,45.00
2019-04-21T01:12:12.569Z,45.10
2019-04-21T01:12:49.492Z,45.10
2019-04-21T01:13:27.387Z,45.20
2019-04-21T01:14:06.778Z,45.20
2019-04-21T01:14:43.213Z,45.30
2019-04-21T01:15:24.635Z,45.40
2019-04-21T01:15:57.265Z,45.50
2019-04-21T01:16:34.569Z,45.50
2019-04-21T01:17:11.117Z,45.60
2019-04-21T01:17:46.476Z,45.70
2019-04-21T01:18:23.350Z,45.70
2019-04-21T01:18:55.279Z,45.80
2019-04-21T01:19:33.242Z,45.80
2019-04-21T01:20:01.460Z,45.80
2019-04-21T01:20:26.879Z,45.80
2019-04-21T01:21:13.350Z,45.80
2019-04-21T01:21:39.082Z,45.80
2019-04-21T01:22:14.254Z,45.70
2019-04-21T01:22:49.413Z,45.80
2019-04-21T01:23:25.580Z,45.60
2019-04-21T01:24:07.806Z,45.60
2019-04-21T01:24:43.382Z,45.70
2019-04-21T01:25:22.676Z,45.70
2019-04-21T01:26:09.191Z,45.80
2019-04-21T01:26:39.307Z,45.80
2019-04-21T01:27:16.186Z,45.90
2019-04-21T01:27:59.677Z,46.00
2019-04-21T01:28:42.078Z,46.00
2019-04-21T01:29:13.236Z,46.00
2019-04-21T01:29:56.602Z,46.20
2019-04-21T01:30:34.549Z,46.90
2019-04-21T01:31:08.772Z,46.50
2019-04-21T01:31:42.622Z,46.80
2019-04-21T01:32:23.985Z,47.00
2019-04-21T01:33:06.357Z,47.30
2019-04-21T01:33:39.791Z,47.50
2019-04-21T01:34:15.338Z,47.70
2019-04-21T01:34:53.276Z,47.80
2019-04-21T01:35:27.734Z,47.80
2019-04-21T01:36:03.747Z,47.80
2019-04-21T01:36:38.770Z,47.80
2019-04-21T01:37:28.847Z,47.90
2019-04-21T01:37:57.614Z,47.80
2019-04-21T01:39:14.952Z,47.90
2019-04-21T01:39:53.548Z,47.90
2019-04-21T01:40:32.015Z,47.90
2019-04-21T01:41:06.969Z,47.90
2019-04-21T01:41:44.801Z,48.00
2019-04-21T01:42:19.139Z,48.10
2019-04-21T01:42:51.115Z,48.10
2019-04-21T01:43:31.518Z,48.10
2019-04-21T01:44:07.443Z,48.20
2019-04-21T01:44:48.422Z,48.20
2019-04-21T01:45:21.210Z,48.30
2019-04-21T01:45:53.991Z,48.30
2019-04-21T01:46:29.403Z,48.40
2019-04-21T01:47:08.364Z,48.40
2019-04-21T01:47:46.235Z,48.40
2019-04-21T01:48:19.660Z,48.50
2019-04-21T01:48:59.362Z,48.50
2019-04-21T01:49:29.595Z,48.50
2019-04-21T01:50:06.791Z,48.50
2019-04-21T01:50:51.629Z,48.60
2019-04-21T01:51:28.319Z,48.80
2019-04-21T01:52:31.148Z,49.00
2019-04-21T01:52:54.606Z,49.00
2019-04-21T01:53:42.539Z,49.00
2019-04-21T01:54:41.784Z,49.30
2019-04-21T01:55:45.544Z,49.60
2019-04-21T01:56:40.212Z,49.80
2019-04-21T01:57:17.557Z,50.00
2019-04-21T01:58:02.068Z,50.00
2019-04-21T01:58:37.966Z,50.00
2019-04-21T01:59:10.787Z,50.10
2019-04-21T01:59:50.266Z,50.20
2019-04-21T02:01:04.731Z,50.20
2019-04-21T02:01:47.280Z,50.20
2019-04-21T02:02:23.008Z,50.30
2019-04-21T02:03:09.704Z,50.40
2019-04-21T02:04:14.076Z,50.40
2019-04-21T02:04:57.572Z,50.40
2019-04-21T02:05:32.697Z,50.60
2019-04-21T02:06:11.083Z,50.60
2019-04-21T02:06:39.000Z,50.60
2019-04-21T02:07:15.238Z,50.70
2019-04-21T02:07:49.526Z,51.30
2019-04-21T02:08:28.715Z,50.80
2019-04-21T02:09:06.484Z,50.80
2019-04-21T02:09:43.298Z,50.80
2019-04-21T02:10:26.924Z,50.80
2019-04-21T02:11:37.294Z,50.90
2019-04-21T02:12:13.475Z,51.00
2019-04-21T02:12:51.083Z,51.00
2019-04-21T02:13:23.309Z,51.00
2019-04-21T02:14:12.927Z,51.00
2019-04-21T02:14:46.073Z,51.00
2019-04-21T02:15:56.119Z,51.00
2019-04-21T02:16:28.144Z,51.00
2019-04-21T02:17:07.658Z,51.00
2019-04-21T02:17:42.131Z,51.10
2019-04-21T02:18:23.058Z,51.20
2019-04-21T02:18:54.485Z,51.20
2019-04-21T02:19:31.596Z,51.20
2019-04-21T02:20:02.581Z,51.30
2019-04-21T02:20:40.295Z,51.40
2019-04-21T02:21:21.689Z,51.60
2019-04-21T02:21:56.729Z,51.60
2019-04-21T02:22:57.448Z,51.80
2019-04-21T02:23:58.697Z,52.00
2019-04-21T02:25:26.119Z,52.20
2019-04-21T02:25:44.577Z,52.10
2019-04-21T02:26:23.830Z,52.10
2019-04-21T02:26:59.446Z,52.00
2019-04-21T02:27:36.461Z,52.00
2019-04-21T02:28:24.462Z,52.00
2019-04-21T02:29:33.049Z,51.90
2019-04-21T02:30:18.391Z,51.90
2019-04-21T02:30:55.277Z,51.90
2019-04-21T02:31:40.466Z,51.90
2019-04-21T02:32:10.515Z,51.90
2019-04-21T02:32:48.059Z,52.00
2019-04-21T02:33:26.133Z,52.00
2019-04-21T02:33:58.635Z,52.00
2019-04-21T02:34:41.661Z,52.00
2019-04-21T02:36:00.579Z,52.00
2019-04-21T02:37:17.630Z,52.00
2019-04-21T02:37:46.764Z,52.00
2019-04-21T02:38:23.164Z,52.00
2019-04-21T02:39:35.543Z,52.30
2019-04-21T02:40:46.490Z,52.50
2019-04-21T02:41:27.648Z,52.60
2019-04-21T02:42:11.570Z,52.80
2019-04-21T02:42:53.828Z,52.90
2019-04-21T02:44:00.634Z,53.20
2019-04-21T02:44:40.835Z,53.20
2019-04-21T02:45:09.496Z,53.30
2019-04-21T02:46:22.319Z,53.30
2019-04-21T02:47:24.207Z,53.30
2019-04-21T02:47:48.076Z,53.30
2019-04-21T02:48:56.465Z,54.00
2019-04-21T02:50:12.782Z,53.40
2019-04-21T02:50:37.614Z,53.40
2019-04-21T02:51:25.739Z,53.60
2019-04-21T02:52:02.014Z,53.70
2019-04-21T02:52:35.473Z,53.70
2019-04-21T02:53:14.039Z,53.80
2019-04-21T02:54:24.481Z,53.80
2019-04-21T02:55:04.103Z,54.10
2019-04-21T02:55:36.732Z,54.20
2019-04-21T02:56:22.680Z,54.30
2019-04-21T02:57:11.318Z,54.40
2019-04-21T02:58:06.144Z,54.60
2019-04-21T03:00:32.253Z,54.90
2019-04-21T03:01:23.781Z,54.90
2019-04-21T03:02:03.587Z,54.80
2019-04-21T03:03:56.230Z,54.80
2019-04-21T03:05:01.747Z,54.90
2019-04-21T03:05:46.968Z,55.00
2019-04-21T03:06:29.144Z,55.20
2019-04-21T03:07:12.987Z,55.20
2019-04-21T03:08:33.692Z,55.20
2019-04-21T03:09:39.416Z,55.30
2019-04-21T03:10:18.262Z,55.30
2019-04-21T03:11:07.416Z,55.20
2019-04-21T03:11:53.441Z,55.20
2019-04-21T03:12:11.572Z,55.30
2019-04-21T03:14:05.980Z,55.40
2019-04-21T03:15:29.313Z,55.50
2019-04-21T03:16:32.934Z,55.60
2019-04-21T03:17:05.715Z,55.60
2019-04-21T03:17:46.296Z,55.60
2019-04-21T03:19:01.942Z,55.50
2019-04-21T03:19:47.415Z,55.50
2019-04-21T03:20:15.056Z,55.50
2019-04-21T03:20:44.446Z,55.50
2019-04-21T03:21:22.261Z,55.50
2019-04-21T03:22:06.599Z,55.40
2019-04-21T03:22:31.562Z,55.50
2019-04-21T03:23:23.421Z,55.50
2019-04-21T03:23:54.115Z,55.60
2019-04-21T03:24:32.879Z,55.70
2019-04-21T03:26:28.489Z,55.80
2019-04-21T03:27:01.511Z,55.80
2019-04-21T03:28:14.275Z,55.90
2019-04-21T03:28:45.185Z,55.80
2019-04-21T03:29:59.219Z,55.80
2019-04-21T03:35:33.802Z,55.80
2019-04-21T03:36:57.104Z,56.10
2019-04-21T03:37:23.196Z,56.20
2019-04-21T03:38:05.830Z,56.30
2019-04-21T03:38:37.747Z,56.50
2019-04-21T03:39:11.463Z,56.50
2019-04-21T03:39:54.465Z,56.50
2019-04-21T03:40:23.362Z,56.50
2019-04-21T03:41:04.189Z,56.50
2019-04-21T03:42:27.146Z,56.60
2019-04-21T03:43:28.237Z,56.50
2019-04-21T03:44:09.957Z,56.60
2019-04-21T03:44:45.562Z,56.60
2019-04-21T03:45:31.318Z,56.70
2019-04-21T03:47:15.455Z,56.60
2019-04-21T03:48:34.118Z,56.60
2019-04-21T03:49:12.546Z,56.50
2019-04-21T03:49:49.661Z,56.60
2019-04-21T03:50:20.538Z,56.60
2019-04-21T03:51:42.172Z,56.70
2019-04-21T03:52:15.063Z,56.70
2019-04-21T03:53:00.812Z,56.80
2019-04-21T03:53:26.496Z,56.70
2019-04-21T03:54:45.096Z,57.40
2019-04-21T03:55:48.836Z,56.80
2019-04-21T03:57:39.759Z,56.80
2019-04-21T03:59:03.769Z,57.00
2019-04-21T03:59:48.912Z,57.90
2019-04-21T04:00:44.776Z,57.30
2019-04-21T04:01:16.084Z,57.40
2019-04-21T04:03:23.562Z,57.50
2019-04-21T04:05:15.383Z,57.70
2019-04-21T04:06:48.865Z,57.90
2019-04-21T04:08:01.769Z,57.90
2019-04-21T04:08:44.437Z,58.00
2019-04-21T04:10:46.713Z,57.90
2019-04-21T04:11:29.455Z,58.00
2019-04-21T04:11:53.029Z,58.10
2019-04-21T04:12:28.552Z,58.10
2019-04-21T04:13:05.435Z,58.10
2019-04-21T04:14:00.858Z,58.10
2019-04-21T04:14:42.454Z,58.10
2019-04-21T04:14:57.657Z,58.20
2019-04-21T04:15:42.859Z,58.20
2019-04-21T04:16:58.532Z,58.30
2019-04-21T04:17:25.488Z,58.50
2019-04-21T04:18:07.671Z,58.30
2019-04-21T04:19:18.004Z,58.50
2019-04-21T04:20:37.558Z,58.40
2019-04-21T04:21:12.275Z,58.50
2019-04-21T04:22:24.908Z,58.50
2019-04-21T04:23:05.591Z,58.50
2019-04-21T04:23:58.014Z,58.60
2019-04-21T04:24:13.374Z,58.60
2019-04-21T04:25:02.004Z,58.60
2019-04-21T04:25:43.783Z,59.30
2019-04-21T04:26:07.622Z,58.60
2019-04-21T04:26:45.389Z,58.60
2019-04-21T04:27:33.683Z,58.70
2019-04-21T04:28:40.544Z,58.80
2019-04-21T04:29:10.884Z,58.80
2019-04-21T04:29:47.731Z,58.80
2019-04-21T04:30:21.769Z,58.80
2019-04-21T04:31:37.570Z,58.80
2019-04-21T04:32:16.910Z,58.80
2019-04-21T04:33:41.769Z,58.80
2019-04-21T04:34:24.849Z,58.80
2019-04-21T04:35:26.388Z,58.80
2019-04-21T04:36:06.323Z,58.90
2019-04-21T04:38:07.007Z,59.00
2019-04-21T04:40:21.507Z,59.30
2019-04-21T04:41:06.348Z,59.30
2019-04-21T04:42:04.902Z,59.40
2019-04-21T04:42:51.468Z,59.50
2019-04-21T04:44:03.119Z,59.60
2019-04-21T04:44:46.696Z,59.70
2019-04-21T04:45:15.067Z,59.70
2019-04-21T04:46:28.996Z,59.90
2019-04-21T04:47:05.837Z,59.90
2019-04-21T04:48:13.496Z,60.10
2019-04-21T04:48:51.588Z,60.20
2019-04-21T04:49:39.056Z,60.30
2019-04-21T04:50:22.565Z,61.20
2019-04-21T04:51:27.127Z,60.30
2019-04-21T04:52:14.130Z,60.50
2019-04-21T04:53:15.667Z,60.50
2019-04-21T04:53:50.896Z,60.50
2019-04-21T04:54:42.770Z,60.60
2019-04-21T04:55:00.692Z,60.60
2019-04-21T04:55:39.191Z,60.80
2019-04-21T04:56:20.466Z,60.70
2019-04-21T04:57:03.209Z,60.90
2019-04-21T04:57:33.903Z,60.80
2019-04-21T04:58:07.553Z,60.90
2019-04-21T05:00:15.564Z,61.10
2019-04-21T05:00:54.671Z,61.30
2019-04-21T05:02:08.557Z,61.40
2019-04-21T05:03:00.988Z,61.50
2019-04-21T05:04:20.539Z,62.50
2019-04-21T05:05:49.449Z,62.10
2019-04-21T05:07:08.778Z,62.40
2019-04-21T05:07:46.155Z,62.60
2019-04-21T05:08:19.782Z,62.70
2019-04-21T05:10:33.033Z,63.00
2019-04-21T05:11:37.342Z,63.10
2019-04-21T05:11:55.722Z,63.30
2019-04-21T05:12:29.564Z,63.40
2019-04-21T05:13:09.995Z,63.60
2019-04-21T05:13:55.391Z,63.70
2019-04-21T05:14:25.038Z,63.90
2019-04-21T05:15:07.728Z,64.10
2019-04-21T05:15:32.149Z,64.40
2019-04-21T05:16:26.408Z,65.40
2019-04-21T05:17:37.977Z,65.20
2019-04-21T05:18:05.421Z,65.40
2019-04-21T05:18:53.108Z,65.60
2019-04-21T05:20:29.867Z,66.30
2019-04-21T05:21:24.476Z,66.50
2019-04-21T05:22:03.504Z,66.50
2019-04-21T05:22:22.305Z,66.90
2019-04-21T05:23:01.069Z,67.60
2019-04-21T05:23:34.684Z,67.90
2019-04-21T05:24:07.514Z,67.80
2019-04-21T05:24:44.003Z,67.90
2019-04-21T05:25:20.303Z,67.80
2019-04-21T05:25:56.576Z,68.00
2019-04-21T05:26:34.432Z,68.00
2019-04-21T05:27:25.509Z,68.10
2019-04-21T05:28:04.953Z,68.20
2019-04-21T05:28:40.696Z,68.30
2019-04-21T05:29:22.717Z,68.40
2019-04-21T05:30:09.730Z,68.40
2019-04-21T05:30:50.954Z,68.50
2019-04-21T05:31:45.133Z,68.60
2019-04-21T05:32:36.177Z,69.10
2019-04-21T05:33:27.561Z,69.20
2019-04-21T05:34:03.044Z,69.10
2019-04-21T05:34:41.237Z,69.00
2019-04-21T05:35:40.535Z,69.00
2019-04-21T05:36:18.749Z,68.90
2019-04-21T05:37:14.164Z,69.00
2019-04-21T05:38:01.404Z,68.80
2019-04-21T05:39:10.820Z,68.70
2019-04-21T05:40:07.542Z,68.70
2019-04-21T05:40:40.202Z,68.80
2019-04-21T05:41:17.543Z,69.60
2019-04-21T05:41:50.855Z,68.90
2019-04-21T05:42:36.624Z,69.10
2019-04-21T05:43:25.881Z,68.80
2019-04-21T05:43:56.354Z,68.80
2019-04-21T05:44:40.022Z,68.70
2019-04-21T05:45:29.405Z,68.70
2019-04-21T05:45:48.973Z,68.70
2019-04-21T05:46:25.379Z,68.50
2019-04-21T05:47:18.834Z,68.50
2019-04-21T05:47:48.749Z,68.60
2019-04-21T05:48:32.229Z,68.50
2019-04-21T05:49:09.276Z,68.40
2019-04-21T05:49:51.269Z,68.30
2019-04-21T05:50:28.001Z,68.20
2019-04-21T05:51:04.792Z,68.00
2019-04-21T05:51:57.478Z,67.80
2019-04-21T05:52:46.007Z,67.60
2019-04-21T05:54:19.294Z,67.60
2019-04-21T05:54:52.835Z,67.40
2019-04-21T05:55:25.661Z,67.10
2019-04-21T05:56:03.592Z,66.90
2019-04-21T05:56:36.644Z,66.30
2019-04-21T05:57:10.383Z,64.90
2019-04-21T05:57:46.685Z,64.80
2019-04-21T05:58:28.461Z,64.40
2019-04-21T05:59:03.424Z,64.30
2019-04-21T05:59:53.671Z,64.00
2019-04-21T06:00:23.608Z,63.90
2019-04-21T06:01:50.309Z,63.20
2019-04-21T06:02:18.457Z,62.90
2019-04-21T06:02:53.413Z,62.70
2019-04-21T06:03:29.274Z,62.60
2019-04-21T06:04:07.648Z,62.40
2019-04-21T06:05:20.678Z,62.60
2019-04-21T06:06:00.460Z,62.70
2019-04-21T06:07:13.920Z,62.40
2019-04-21T06:07:41.016Z,62.20
2019-04-21T06:08:23.335Z,62.20
2019-04-21T06:08:52.509Z,62.10
2019-04-21T06:09:39.965Z,62.10
2019-04-21T06:10:08.506Z,62.20
2019-04-21T06:10:58.806Z,62.40
2019-04-21T06:11:28.456Z,62.50
2019-04-21T06:12:05.428Z,62.40
2019-04-21T06:12:40.483Z,62.30
2019-04-21T06:13:19.363Z,62.30
2019-04-21T06:13:55.518Z,62.30
2019-04-21T06:14:31.100Z,62.40
2019-04-21T06:15:12.200Z,62.30
2019-04-21T06:15:50.031Z,62.20
2019-04-21T06:16:24.172Z,62.00
2019-04-21T06:17:04.560Z,61.70
2019-04-21T06:17:38.785Z,61.50
2019-04-21T06:18:15.773Z,61.40
2019-04-21T06:18:52.951Z,61.40
2019-04-21T06:19:31.200Z,61.30
2019-04-21T06:20:40.647Z,60.70
2019-04-21T06:21:16.379Z,60.60
2019-04-21T06:21:51.343Z,60.40
2019-04-21T06:22:30.117Z,60.30
2019-04-21T06:23:11.522Z,60.00
2019-04-21T06:23:45.044Z,60.60
2019-04-21T06:24:21.795Z,59.60
2019-04-21T06:25:48.692Z,59.50
2019-04-21T06:26:27.971Z,59.40
2019-04-21T06:27:00.348Z,59.30
2019-04-21T06:27:32.745Z,59.10
2019-04-21T06:28:04.724Z,59.00
2019-04-21T06:28:45.988Z,59.00
2019-04-21T06:29:18.500Z,59.10
2019-04-21T06:29:54.650Z,59.00
2019-04-21T06:30:35.972Z,58.70
2019-04-21T06:31:12.676Z,58.60
2019-04-21T06:32:52.654Z,58.40
2019-04-21T06:33:40.355Z,58.20
2019-04-21T06:34:16.818Z,57.90
2019-04-21T06:35:12.446Z,58.00
2019-04-21T06:36:21.469Z,58.00
2019-04-21T06:36:42.279Z,58.00
2019-04-21T06:38:15.254Z,57.30
2019-04-21T06:38:59.706Z,57.30
2019-04-21T06:39:44.024Z,57.30
2019-04-21T06:40:48.679Z,57.60
2019-04-21T06:41:32.645Z,57.50
2019-04-21T06:41:58.855Z,57.60
2019-04-21T06:42:48.562Z,57.50
2019-04-21T06:43:25.859Z,57.50
2019-04-21T06:43:56.536Z,57.20
2019-04-21T06:44:54.552Z,57.10
2019-04-21T06:45:12.850Z,56.70
2019-04-21T06:45:48.848Z,56.50
2019-04-21T06:46:27.797Z,56.50
2019-04-21T06:47:03.165Z,56.50
2019-04-21T06:47:42.337Z,56.50
2019-04-21T06:48:15.038Z,56.50
2019-04-21T06:48:53.811Z,56.60
2019-04-21T06:49:23.978Z,56.60
2019-04-21T06:50:01.997Z,56.70
2019-04-21T06:51:00.603Z,56.80
2019-04-21T06:51:15.364Z,56.70
2019-04-21T06:51:57.870Z,56.70
2019-04-21T06:53:07.138Z,56.20
2019-04-21T06:53:44.583Z,55.90
2019-04-21T06:54:25.264Z,55.80
2019-04-21T06:55:06.063Z,55.90
2019-04-21T06:55:33.940Z,55.80
2019-04-21T06:56:15.200Z,55.80
2019-04-21T06:56:46.400Z,55.80
2019-04-21T06:57:29.510Z,55.40
2019-04-21T06:58:00.644Z,55.20
2019-04-21T06:58:35.595Z,55.20
2019-04-21T06:59:09.588Z,55.20
2019-04-21T06:59:54.257Z,55.20
2019-04-21T07:00:25.880Z,55.30
2019-04-21T07:01:09.146Z,55.70
2019-04-21T07:01:55.240Z,55.50
2019-04-21T07:02:36.252Z,55.50
2019-04-21T07:03:34.808Z,55.30
2019-04-21T07:04:20.994Z,55.20
2019-04-21T07:04:50.049Z,55.20
2019-04-21T07:05:26.539Z,55.10
2019-04-21T07:06:05.947Z,54.80
2019-04-21T07:06:46.964Z,54.60
2019-04-21T07:07:14.530Z,54.70
2019-04-21T07:08:11.216Z,54.50
2019-04-21T07:08:34.585Z,54.50
2019-04-21T07:09:47.967Z,53.60
2019-04-21T07:10:22.775Z,53.70
2019-04-21T07:10:59.156Z,53.60
2019-04-21T07:11:30.510Z,53.60
2019-04-21T07:12:08.861Z,53.50
2019-04-21T07:12:44.910Z,53.00
2019-04-21T07:13:21.979Z,53.00
2019-04-21T07:14:20.865Z,53.00
2019-04-21T07:14:43.862Z,52.80
2019-04-21T07:15:19.281Z,52.40
2019-04-21T07:15:53.540Z,52.50
2019-04-21T07:16:31.787Z,52.30
2019-04-21T07:17:13.404Z,52.20
2019-04-21T07:17:38.756Z,52.00
2019-04-21T07:18:25.392Z,52.10
2019-04-21T07:19:09.827Z,52.40
2019-04-21T07:19:42.304Z,52.40
2019-04-21T07:20:12.775Z,52.10
2019-04-21T07:20:49.137Z,52.20
2019-04-21T07:21:27.820Z,52.20
2019-04-21T07:22:03.191Z,52.10
2019-04-21T07:22:44.704Z,52.30
2019-04-21T07:23:16.083Z,52.50
2019-04-21T07:24:02.700Z,52.40
2019-04-21T07:24:31.694Z,52.50
2019-04-21T07:25:09.037Z,52.70
2019-04-21T07:25:45.562Z,52.70
2019-04-21T07:26:19.218Z,53.30
2019-04-21T07:27:02.845Z,53.20
2019-04-21T07:27:35.087Z,53.10
2019-04-21T07:28:14.075Z,53.20
2019-04-21T07:28:56.815Z,53.30
2019-04-21T07:29:29.073Z,53.00
2019-04-21T07:30:04.684Z,52.90
2019-04-21T07:30:43.894Z,53.00
2019-04-21T07:31:19.996Z,53.20
2019-04-21T07:31:58.969Z,53.00
2019-04-21T07:32:49.409Z,53.80
2019-04-21T07:33:18.779Z,53.00
2019-04-21T07:33:53.435Z,52.80
2019-04-21T07:35:00.642Z,52.30
2019-04-21T07:35:31.744Z,52.10
2019-04-21T07:36:15.997Z,52.20
2019-04-21T07:37:27.621Z,52.50
2019-04-21T07:38:06.546Z,52.50
2019-04-21T07:38:41.174Z,52.50
2019-04-21T07:39:10.497Z,52.50
2019-04-21T07:39:49.427Z,52.30
2019-04-21T07:40:28.613Z,52.30
2019-04-21T07:41:03.157Z,52.00
2019-04-21T07:41:39.847Z,51.90
2019-04-21T07:42:19.263Z,51.90
2019-04-21T07:42:51.112Z,52.00
2019-04-21T07:43:29.989Z,51.80
2019-04-21T07:44:04.591Z,52.00
2019-04-21T07:44:39.192Z,51.20
2019-04-21T07:45:22.938Z,51.10
2019-04-21T07:45:59.473Z,51.30
2019-04-21T07:46:28.954Z,51.90
2019-04-21T07:47:15.804Z,51.30
2019-04-21T07:48:16.111Z,51.30
2019-04-21T07:48:43.172Z,51.30
2019-04-21T07:49:46.476Z,51.40
2019-04-21T07:50:29.842Z,51.30
2019-04-21T07:51:07.527Z,52.00
2019-04-21T07:52:03.062Z,50.70
2019-04-21T07:52:39.454Z,50.60
2019-04-21T07:53:21.149Z,50.20
2019-04-21T07:54:01.887Z,50.30
2019-04-21T07:54:37.355Z,50.30
2019-04-21T07:55:22.072Z,50.00
2019-04-21T07:56:09.238Z,49.60
2019-04-21T07:56:43.846Z,49.30
2019-04-21T07:57:31.834Z,49.10
2019-04-21T07:58:12.915Z,48.80
2019-04-21T07:58:53.699Z,48.50
2019-04-21T07:59:41.143Z,48.10
2019-04-21T08:00:15.025Z,47.80
2019-04-21T08:00:52.643Z,47.90
2019-04-21T08:01:23.014Z,48.00
2019-04-21T08:01:56.380Z,48.00
2019-04-21T08:02:33.104Z,48.00
2019-04-21T08:03:07.938Z,48.00
2019-04-21T08:03:46.120Z,47.90
2019-04-21T08:04:43.917Z,47.70
2019-04-21T08:05:04.156Z,47.70
2019-04-21T08:05:44.005Z,47.60
2019-04-21T08:06:18.992Z,47.10
2019-04-21T08:07:30.687Z,46.90
2019-04-21T08:08:18.986Z,47.00
2019-04-21T08:08:42.223Z,46.90
2019-04-21T08:09:19.750Z,47.00
2019-04-21T08:09:51.450Z,46.90
2019-04-21T08:10:30.009Z,46.90
2019-04-21T08:11:02.301Z,47.00
2019-04-21T08:11:41.725Z,47.10
2019-04-21T08:12:18.730Z,47.20
2019-04-21T08:12:55.624Z,47.30
2019-04-21T08:13:42.975Z,47.20
2019-04-21T08:14:06.922Z,47.50
2019-04-21T08:14:55.238Z,47.30
2019-04-21T08:15:27.569Z,47.30
2019-04-21T08:16:10.872Z,47.20
2019-04-21T08:16:49.824Z,47.30
2019-04-21T08:17:16.555Z,47.20
2019-04-21T08:17:59.686Z,46.40
2019-04-21T08:19:13.091Z,46.00
2019-04-21T08:19:43.095Z,45.60
2019-04-21T08:20:25.924Z,45.60
2019-04-21T08:21:02.683Z,45.80
2019-04-21T08:21:43.026Z,46.30
2019-04-21T08:22:17.316Z,46.40
2019-04-21T08:23:13.261Z,46.30
2019-04-21T08:23:34.090Z,46.10
2019-04-21T08:24:06.172Z,46.10
2019-04-21T08:24:50.783Z,46.00
2019-04-21T08:25:19.592Z,45.90
2019-04-21T08:26:39.729Z,45.30
2019-04-21T08:27:20.325Z,44.70
2019-04-21T08:27:56.808Z,44.00
2019-04-21T08:28:31.975Z,43.90
2019-04-21T08:29:13.191Z,43.50
2019-04-21T08:29:46.235Z,43.50
2019-04-21T08:30:20.983Z,43.70
2019-04-21T08:31:02.030Z,43.70
2019-04-21T08:31:38.398Z,43.80
2019-04-21T08:32:16.046Z,43.30
2019-04-21T08:33:31.963Z,42.80
2019-04-21T08:34:08.416Z,42.60
2019-04-21T08:34:44.518Z,42.20
2019-04-21T08:36:15.431Z,41.50
2019-04-21T08:36:37.775Z,41.00
2019-04-21T08:37:13.909Z,40.60
2019-04-21T08:37:48.434Z,40.30
2019-04-21T08:38:30.205Z,39.90
2019-04-21T08:39:01.402Z,38.60
2019-04-21T08:39:49.583Z,38.60
2019-04-21T08:40:26.461Z,38.40
2019-04-21T08:40:58.330Z,38.30
2019-04-21T08:41:30.220Z,38.10
2019-04-21T08:42:10.386Z,38.00
2019-04-21T08:42:45.039Z,37.90
2019-04-21T08:43:32.014Z,36.90
2019-04-21T08:43:58.955Z,36.50
2019-04-21T08:44:40.273Z,35.90
2019-04-21T08:45:15.270Z,35.50
2019-04-21T08:45:56.861Z,35.10
2019-04-21T08:46:31.742Z,35.10
2019-04-21T08:47:07.429Z,35.20
2019-04-21T08:47:47.432Z,35.20
2019-04-21T08:48:19.480Z,34.10
2019-04-21T08:49:00.821Z,34.10
2019-04-21T08:49:36.337Z,34.10
2019-04-21T08:50:15.307Z,33.60
2019-04-21T08:51:00.382Z,33.30
2019-04-21T08:52:17.655Z,32.80
2019-04-21T08:53:19.848Z,33.20
2019-04-21T08:54:15.146Z,33.10
2019-04-21T08:54:36.557Z,33.10
2019-04-21T08:55:36.233Z,32.60
2019-04-21T08:56:21.294Z,32.70
2019-04-21T08:57:33.284Z,31.40
2019-04-21T08:58:29.173Z,31.40
2019-04-21T08:59:19.281Z,31.40
2019-04-21T08:59:58.885Z,31.90
2019-04-21T09:01:01.113Z,31.30
2019-04-21T09:02:07.662Z,31.00
2019-04-21T09:02:56.092Z,31.00
2019-04-21T09:03:49.574Z,30.60
2019-04-21T09:04:23.408Z,30.20
2019-04-21T09:05:09.481Z,29.60
2019-04-21T09:05:40.969Z,29.60
2019-04-21T09:06:27.878Z,29.60
2019-04-21T09:07:04.638Z,29.20
2019-04-21T09:07:33.148Z,29.10
2019-04-21T09:08:17.979Z,29.20
2019-04-21T09:08:46.192Z,29.30
2019-04-21T09:09:23.679Z,29.00
2019-04-21T09:09:57.426Z,29.10
2019-04-21T09:10:34.757Z,28.70
2019-04-21T09:11:12.845Z,28.80
2019-04-21T09:11:53.885Z,28.60
2019-04-21T09:12:33.128Z,29.30
2019-04-21T09:13:07.431Z,28.80
2019-04-21T09:13:42.826Z,28.90
2019-04-21T09:14:17.854Z,28.90
2019-04-21T09:14:56.773Z,29.60
2019-04-21T09:15:30.907Z,28.90
2019-04-21T09:16:09.719Z,28.50
2019-04-21T09:16:41.076Z,28.50
2019-04-21T09:17:23.616Z,28.10
2019-04-21T09:17:53.473Z,28.20
2019-04-21T09:18:32.543Z,28.10
2019-04-21T09:19:23.850Z,28.80
2019-04-21T09:20:13.826Z,27.80
2019-04-21T09:20:33.374Z,27.90
2019-04-21T09:21:07.565Z,27.70
2019-04-21T09:21:45.549Z,27.80
2019-04-21T09:22:17.810Z,27.50
2019-04-21T09:23:00.738Z,27.50
2019-04-21T09:23:32.769Z,27.40
2019-04-21T09:24:11.631Z,27.10
2019-04-21T09:24:53.536Z,27.20